createdAt,value
2022-12-08T00:00:31.313Z,996.71
2022-12-08T00:01:31.296Z,996.71
2022-12-08T00:02:31.492Z,996.68
2022-12-08T00:03:31.493Z,996.72
2022-12-08T00:04:31.256Z,996.63
2022-12-08T00:05:31.276Z,996.72
2022-12-08T00:06:31.250Z,996.70
2022-12-08T00:07:31.262Z,996.65
2022-12-08T00:08:31.224Z,996.65
2022-12-08T00:09:37.896Z,996.66
2022-12-08T00:10:59.003Z,996.61
2022-12-08T00:11:32.194Z,996.65
2022-12-08T00:12:31.168Z,996.67
2022-12-08T00:13:31.189Z,996.63
2022-12-08T00:14:31.185Z,996.59
2022-12-08T00:15:31.145Z,996.58
2022-12-08T00:16:31.233Z,996.55
2022-12-08T00:17:31.142Z,996.56
2022-12-08T00:18:31.102Z,996.54
2022-12-08T00:19:31.129Z,996.56
2022-12-08T00:20:31.082Z,996.51
2022-12-08T00:21:31.109Z,996.48
2022-12-08T00:22:31.079Z,996.56
2022-12-08T00:23:31.072Z,996.54
2022-12-08T00:24:31.037Z,996.52
2022-12-08T00:25:31.039Z,996.49
2022-12-08T00:26:31.049Z,996.50
2022-12-08T00:27:31.045Z,996.53
2022-12-08T00:28:30.993Z,996.50
2022-12-08T00:29:30.997Z,996.46
2022-12-08T00:30:30.974Z,996.52
2022-12-08T00:31:31.054Z,996.48
2022-12-08T00:32:30.991Z,996.42
2022-12-08T00:33:30.977Z,996.48
2022-12-08T00:34:30.966Z,996.44
2022-12-08T00:35:30.922Z,996.43
2022-12-08T00:36:30.928Z,996.36
2022-12-08T00:37:30.909Z,996.34
2022-12-08T00:38:30.906Z,996.42
2022-12-08T00:39:30.917Z,996.39
2022-12-08T00:40:30.870Z,996.29
2022-12-08T00:41:30.883Z,996.39
2022-12-08T00:42:30.865Z,996.36
2022-12-08T00:43:30.845Z,996.33
2022-12-08T00:44:30.846Z,996.27
2022-12-08T00:45:30.902Z,996.26
2022-12-08T00:46:30.830Z,996.28
2022-12-08T00:47:30.801Z,996.40
2022-12-08T00:48:30.781Z,996.25
2022-12-08T00:49:30.818Z,996.32
2022-12-08T00:50:30.759Z,996.30
2022-12-08T00:51:30.748Z,996.29
2022-12-08T00:52:30.739Z,996.27
2022-12-08T00:53:30.734Z,996.26
2022-12-08T00:54:30.770Z,996.27
2022-12-08T00:55:30.758Z,996.25
2022-12-08T00:56:30.696Z,996.31
2022-12-08T00:57:30.687Z,996.31
2022-12-08T00:58:30.676Z,996.28
2022-12-08T00:59:30.668Z,996.25
2022-12-08T01:00:30.688Z,996.22
2022-12-08T01:01:30.759Z,996.24
2022-12-08T01:02:30.631Z,996.25
2022-12-08T01:03:30.696Z,996.21
2022-12-08T01:04:30.635Z,996.28
2022-12-08T01:05:30.600Z,996.28
2022-12-08T01:06:30.591Z,996.24
2022-12-08T01:07:30.628Z,996.21
2022-12-08T01:08:30.567Z,996.26
2022-12-08T01:09:30.554Z,996.20
2022-12-08T01:10:30.575Z,996.21
2022-12-08T01:11:30.536Z,996.26
2022-12-08T01:12:30.539Z,996.23
2022-12-08T01:13:30.560Z,996.18
2022-12-08T01:14:30.500Z,996.24
2022-12-08T01:15:30.493Z,996.21
2022-12-08T01:16:30.584Z,996.22
2022-12-08T01:17:30.471Z,996.21
2022-12-08T01:18:30.479Z,996.20
2022-12-08T01:19:30.465Z,996.20
2022-12-08T01:20:30.450Z,996.18
2022-12-08T01:21:30.428Z,996.18
2022-12-08T01:22:30.430Z,996.20
2022-12-08T01:23:30.440Z,996.18
2022-12-08T01:24:30.403Z,996.20
2022-12-08T01:25:30.382Z,996.22
2022-12-08T01:26:30.435Z,996.18
2022-12-08T01:27:30.395Z,996.15
2022-12-08T01:28:30.362Z,996.20
2022-12-08T01:29:30.342Z,996.14
2022-12-08T01:30:30.376Z,996.17
2022-12-08T01:31:30.360Z,996.17
2022-12-08T01:32:30.323Z,996.17
2022-12-08T01:33:30.302Z,996.21
2022-12-08T01:34:30.294Z,996.16
2022-12-08T01:35:30.277Z,996.28
2022-12-08T01:36:30.269Z,996.22
2022-12-08T01:37:30.286Z,996.21
2022-12-08T01:38:30.300Z,996.26
2022-12-08T01:39:30.232Z,996.24
2022-12-08T01:40:30.221Z,996.17
2022-12-08T01:41:30.250Z,996.21
2022-12-08T01:42:30.242Z,996.15
2022-12-08T01:43:30.207Z,996.19
2022-12-08T01:44:30.265Z,996.13
2022-12-08T01:45:30.171Z,996.16
2022-12-08T01:46:30.274Z,996.14
2022-12-08T01:47:30.238Z,996.05
2022-12-08T01:48:30.167Z,996.09
2022-12-08T01:49:30.125Z,996.13
2022-12-08T01:50:30.188Z,996.08
2022-12-08T01:51:30.104Z,996.11
2022-12-08T01:52:30.118Z,996.06
2022-12-08T01:53:30.083Z,996.04
2022-12-08T01:54:30.080Z,996.10
2022-12-08T01:55:30.075Z,996.08
2022-12-08T01:56:30.108Z,996.07
2022-12-08T01:57:30.041Z,996.08
2022-12-08T01:58:30.045Z,996.08
2022-12-08T01:59:30.021Z,995.98
2022-12-08T02:00:30.053Z,996.02
2022-12-08T02:01:30.079Z,996.01
2022-12-08T02:02:30.035Z,996.00
2022-12-08T02:03:30.057Z,996.05
2022-12-08T02:04:30.068Z,996.05
2022-12-08T02:05:29.957Z,996.02
2022-12-08T02:06:29.974Z,995.99
2022-12-08T02:07:29.982Z,996.00
2022-12-08T02:08:30.065Z,995.95
2022-12-08T02:09:29.919Z,995.97
2022-12-08T02:10:29.900Z,995.98
2022-12-08T02:11:29.937Z,995.98
2022-12-08T02:12:29.918Z,995.96
2022-12-08T02:13:29.868Z,995.90
2022-12-08T02:14:29.897Z,995.91
2022-12-08T02:15:29.882Z,995.93
2022-12-08T02:16:29.950Z,995.93
2022-12-08T02:17:29.833Z,995.88
2022-12-08T02:18:29.839Z,995.86
2022-12-08T02:19:31.357Z,995.82
2022-12-08T02:20:29.791Z,995.86
2022-12-08T02:21:29.793Z,995.88
2022-12-08T02:22:29.803Z,995.89
2022-12-08T02:23:29.768Z,995.86
2022-12-08T02:24:29.749Z,995.82
2022-12-08T02:25:29.795Z,995.86
2022-12-08T02:26:29.726Z,995.91
2022-12-08T02:27:29.729Z,995.88
2022-12-08T02:28:29.704Z,995.85
2022-12-08T02:29:29.722Z,995.85
2022-12-08T02:30:29.794Z,995.87
2022-12-08T02:31:29.802Z,995.81
2022-12-08T02:32:29.691Z,995.84
2022-12-08T02:33:29.651Z,995.82
2022-12-08T02:34:29.640Z,995.84
2022-12-08T02:35:29.631Z,995.80
2022-12-08T02:36:29.649Z,995.83
2022-12-08T02:37:29.621Z,995.89
2022-12-08T02:38:29.596Z,995.85
2022-12-08T02:39:29.584Z,995.81
2022-12-08T02:40:29.574Z,995.84
2022-12-08T02:41:29.581Z,995.78
2022-12-08T02:42:29.582Z,995.80
2022-12-08T02:43:29.582Z,995.79
2022-12-08T02:44:29.531Z,995.75
2022-12-08T02:45:29.548Z,995.75
2022-12-08T02:46:29.564Z,995.71
2022-12-08T02:47:29.557Z,995.74
2022-12-08T02:48:29.490Z,995.72
2022-12-08T02:49:29.508Z,995.74
2022-12-08T02:50:29.487Z,995.71
2022-12-08T02:51:29.473Z,995.70
2022-12-08T02:52:29.447Z,995.69
2022-12-08T02:53:29.455Z,995.75
2022-12-08T02:54:29.422Z,995.71
2022-12-08T02:55:29.489Z,995.69
2022-12-08T02:56:29.525Z,995.66
2022-12-08T02:57:29.389Z,995.61
2022-12-08T02:58:29.384Z,995.63
2022-12-08T02:59:29.396Z,995.62
2022-12-08T03:00:29.403Z,995.61
2022-12-08T03:01:29.450Z,995.61
2022-12-08T03:02:29.690Z,995.59
2022-12-08T03:03:29.361Z,995.60
2022-12-08T03:04:29.322Z,995.50
2022-12-08T03:05:29.333Z,995.53
2022-12-08T03:06:29.295Z,995.57
2022-12-08T03:07:29.284Z,995.56
2022-12-08T03:08:29.483Z,995.56
2022-12-08T03:09:29.261Z,995.55
2022-12-08T03:10:29.277Z,995.59
2022-12-08T03:11:29.240Z,995.57
2022-12-08T03:12:29.231Z,995.62
2022-12-08T03:13:29.244Z,995.58
2022-12-08T03:14:29.391Z,995.61
2022-12-08T03:15:29.220Z,995.50
2022-12-08T03:16:29.288Z,995.57
2022-12-08T03:17:29.175Z,995.56
2022-12-08T03:18:29.188Z,995.47
2022-12-08T03:19:29.171Z,995.49
2022-12-08T03:20:29.321Z,995.54
2022-12-08T03:21:29.171Z,995.47
2022-12-08T03:22:29.148Z,995.48
2022-12-08T03:23:29.112Z,995.43
2022-12-08T03:24:29.101Z,995.52
2022-12-08T03:25:29.109Z,995.41
2022-12-08T03:26:29.111Z,995.48
2022-12-08T03:27:29.070Z,995.39
2022-12-08T03:28:29.080Z,995.43
2022-12-08T03:29:29.070Z,995.38
2022-12-08T03:30:29.046Z,995.39
2022-12-08T03:31:29.323Z,995.39
2022-12-08T03:32:29.047Z,995.36
2022-12-08T03:33:29.005Z,995.41
2022-12-08T03:34:29.026Z,995.37
2022-12-08T03:35:28.984Z,995.33
2022-12-08T03:36:28.972Z,995.32
2022-12-08T03:37:29.189Z,995.35
2022-12-08T03:38:28.979Z,995.35
2022-12-08T03:39:28.939Z,995.32
2022-12-08T03:40:29.115Z,995.39
2022-12-08T03:41:28.919Z,995.35
2022-12-08T03:42:28.906Z,995.27
2022-12-08T03:43:29.171Z,995.26
2022-12-08T03:44:28.939Z,995.29
2022-12-08T03:45:28.875Z,995.28
2022-12-08T03:46:58.601Z,995.22
2022-12-08T03:47:58.341Z,995.29
2022-12-08T03:48:58.504Z,995.26
2022-12-08T03:49:58.291Z,995.21
2022-12-08T03:50:58.287Z,995.15
2022-12-08T03:51:58.251Z,995.16
2022-12-08T03:52:58.445Z,995.20
2022-12-08T03:53:58.227Z,995.16
2022-12-08T03:54:58.228Z,995.17
2022-12-08T03:55:58.229Z,995.14
2022-12-08T03:56:58.238Z,995.15
2022-12-08T03:57:58.288Z,995.10
2022-12-08T03:58:58.270Z,995.14
2022-12-08T03:59:58.163Z,995.14
2022-12-08T04:00:58.175Z,995.11
2022-12-08T04:01:58.196Z,995.05
2022-12-08T04:02:58.195Z,995.08
2022-12-08T04:03:58.135Z,995.12
2022-12-08T04:04:58.145Z,995.09
2022-12-08T04:05:58.115Z,995.01
2022-12-08T04:06:58.099Z,995.06
2022-12-08T04:07:58.150Z,995.08
2022-12-08T04:08:58.066Z,995.00
2022-12-08T04:09:58.121Z,994.99
2022-12-08T04:10:58.173Z,994.95
2022-12-08T04:11:58.030Z,995.01
2022-12-08T04:12:58.032Z,995.03
2022-12-08T04:13:58.011Z,994.95
2022-12-08T04:14:58.004Z,994.97
2022-12-08T04:15:58.044Z,995.00
2022-12-08T04:16:58.130Z,994.90
2022-12-08T04:17:57.970Z,994.92
2022-12-08T04:18:57.986Z,994.96
2022-12-08T04:19:57.945Z,994.97
2022-12-08T04:20:57.935Z,994.95
2022-12-08T04:21:57.947Z,994.94
2022-12-08T04:22:58.208Z,994.97
2022-12-08T04:24:01.321Z,994.92
2022-12-08T04:24:57.928Z,994.94
2022-12-08T04:25:57.914Z,994.88
2022-12-08T04:26:57.919Z,994.92
2022-12-08T04:27:58.039Z,994.92
2022-12-08T04:28:57.851Z,994.92
2022-12-08T04:29:57.838Z,994.88
2022-12-08T04:30:57.876Z,994.87
2022-12-08T04:31:57.978Z,994.85
2022-12-08T04:32:57.826Z,994.79
2022-12-08T04:33:57.996Z,994.90
2022-12-08T04:34:57.787Z,994.88
2022-12-08T04:35:57.773Z,994.85
2022-12-08T04:36:57.793Z,994.81
2022-12-08T04:37:57.774Z,994.84
2022-12-08T04:38:57.766Z,994.84
2022-12-08T04:39:57.880Z,994.84
2022-12-08T04:40:57.757Z,994.79
2022-12-08T04:41:57.710Z,994.88
2022-12-08T04:42:57.736Z,994.87
2022-12-08T04:43:57.688Z,994.78
2022-12-08T04:44:57.678Z,994.74
2022-12-08T04:45:57.841Z,994.77
2022-12-08T04:46:57.731Z,994.77
2022-12-08T04:47:57.649Z,994.74
2022-12-08T04:48:57.655Z,994.78
2022-12-08T04:49:57.666Z,994.73
2022-12-08T04:50:57.717Z,994.77
2022-12-08T04:51:57.612Z,994.77
2022-12-08T04:52:57.624Z,994.75
2022-12-08T04:53:57.624Z,994.78
2022-12-08T04:54:57.594Z,994.77
2022-12-08T04:55:57.559Z,994.76
2022-12-08T04:56:57.595Z,994.79
2022-12-08T04:57:57.543Z,994.79
2022-12-08T04:58:57.560Z,994.75
2022-12-08T04:59:57.524Z,994.80
2022-12-08T05:00:57.551Z,994.81
2022-12-08T05:01:57.717Z,994.89
2022-12-08T05:02:57.662Z,994.80
2022-12-08T05:03:57.495Z,994.82
2022-12-08T05:04:57.462Z,994.74
2022-12-08T05:05:57.469Z,994.74
2022-12-08T05:06:57.470Z,994.74
2022-12-08T05:07:57.516Z,994.74
2022-12-08T05:08:57.455Z,994.73
2022-12-08T05:09:57.422Z,994.77
2022-12-08T05:10:57.398Z,994.81
2022-12-08T05:11:57.408Z,994.82
2022-12-08T05:12:57.374Z,994.81
2022-12-08T05:13:57.382Z,994.79
2022-12-08T05:14:57.477Z,994.79
2022-12-08T05:15:57.359Z,994.83
2022-12-08T05:16:57.332Z,994.83
2022-12-08T05:17:57.341Z,994.78
2022-12-08T05:18:57.312Z,994.84
2022-12-08T05:19:57.317Z,994.81
2022-12-08T05:20:57.374Z,994.82
2022-12-08T05:21:57.278Z,994.89
2022-12-08T05:22:57.268Z,994.87
2022-12-08T05:23:57.282Z,994.87
2022-12-08T05:24:57.248Z,994.85
2022-12-08T05:25:57.259Z,994.77
2022-12-08T05:26:57.308Z,994.87
2022-12-08T05:28:17.651Z,994.84
2022-12-08T05:28:57.247Z,994.91
2022-12-08T05:29:57.207Z,994.85
2022-12-08T05:30:57.185Z,994.87
2022-12-08T05:31:57.249Z,994.95
2022-12-08T05:32:57.288Z,994.84
2022-12-08T05:34:02.458Z,994.82
2022-12-08T05:34:57.159Z,994.90
2022-12-08T05:35:57.140Z,994.95
2022-12-08T05:36:57.120Z,994.92
2022-12-08T05:37:57.106Z,994.89
2022-12-08T05:38:57.229Z,994.89
2022-12-08T05:39:57.116Z,994.86
2022-12-08T05:40:57.075Z,994.99
2022-12-08T05:41:57.087Z,994.87
2022-12-08T05:42:57.089Z,994.93
2022-12-08T05:43:57.062Z,994.87
2022-12-08T05:44:57.204Z,994.93
2022-12-08T05:45:57.088Z,994.92
2022-12-08T05:46:57.013Z,994.88
2022-12-08T05:47:57.018Z,994.87
2022-12-08T05:48:57.029Z,994.84
2022-12-08T05:49:56.978Z,994.87
2022-12-08T05:50:57.179Z,994.87
2022-12-08T05:51:56.992Z,994.86
2022-12-08T05:52:56.950Z,994.81
2022-12-08T05:53:56.956Z,994.85
2022-12-08T05:54:56.928Z,994.81
2022-12-08T05:55:56.962Z,994.79
2022-12-08T05:56:57.096Z,994.81
2022-12-08T05:57:56.915Z,994.76
2022-12-08T05:58:56.902Z,994.81
2022-12-08T05:59:56.881Z,994.80
2022-12-08T06:00:56.870Z,994.73
2022-12-08T06:01:56.921Z,994.85
2022-12-08T06:02:57.233Z,994.72
2022-12-08T06:03:56.827Z,994.75
2022-12-08T06:04:56.842Z,994.65
2022-12-08T06:05:56.803Z,994.72
2022-12-08T06:06:56.842Z,994.68
2022-12-08T06:07:56.815Z,994.67
2022-12-08T06:08:56.940Z,994.68
2022-12-08T06:09:56.766Z,994.68
2022-12-08T06:10:56.761Z,994.75
2022-12-08T06:11:56.992Z,994.65
2022-12-08T06:12:56.732Z,994.72
2022-12-08T06:13:56.837Z,994.67
2022-12-08T06:14:56.961Z,994.67
2022-12-08T06:15:56.701Z,994.77
2022-12-08T06:16:56.733Z,994.74
2022-12-08T06:17:56.877Z,994.71
2022-12-08T06:18:56.665Z,994.73
2022-12-08T06:19:56.678Z,994.68
2022-12-08T06:20:56.869Z,994.72
2022-12-08T06:21:56.633Z,994.70
2022-12-08T06:22:56.641Z,994.65
2022-12-08T06:23:56.632Z,994.69
2022-12-08T06:24:56.660Z,994.70
2022-12-08T06:25:56.746Z,994.66
2022-12-08T06:26:56.579Z,994.66
2022-12-08T06:27:56.600Z,994.69
2022-12-08T06:28:56.571Z,994.67
2022-12-08T06:29:56.568Z,994.64
2022-12-08T06:30:56.586Z,994.70
2022-12-08T06:31:56.814Z,994.68
2022-12-08T06:32:56.516Z,994.75
2022-12-08T06:33:56.506Z,994.74
2022-12-08T06:34:56.510Z,994.71
2022-12-08T06:35:56.519Z,994.70
2022-12-08T06:36:56.473Z,994.68
2022-12-08T06:37:56.705Z,994.64
2022-12-08T06:38:56.452Z,994.71
2022-12-08T06:39:56.488Z,994.68
2022-12-08T06:40:56.445Z,994.64
2022-12-08T06:41:56.419Z,994.71
2022-12-08T06:42:56.409Z,994.67
2022-12-08T06:43:56.665Z,994.64
2022-12-08T06:44:56.417Z,994.71
2022-12-08T06:45:56.488Z,994.65
2022-12-08T06:46:56.389Z,994.66
2022-12-08T06:47:56.354Z,994.69
2022-12-08T06:48:56.353Z,994.68
2022-12-08T06:49:56.597Z,994.68
2022-12-08T06:50:56.326Z,994.69
2022-12-08T06:51:56.315Z,994.67
2022-12-08T06:53:04.732Z,994.66
2022-12-08T06:53:56.294Z,994.62
2022-12-08T06:54:56.306Z,994.72
2022-12-08T06:56:00.036Z,994.72
2022-12-08T06:56:56.262Z,994.69
2022-12-08T06:57:57.223Z,994.70
2022-12-08T06:58:56.266Z,994.75
2022-12-08T06:59:56.225Z,994.76
2022-12-08T07:00:56.269Z,994.83
2022-12-08T07:01:56.507Z,994.82
2022-12-08T07:02:56.221Z,994.80
2022-12-08T07:03:56.209Z,994.82
2022-12-08T07:04:56.198Z,994.82
2022-12-08T07:06:01.811Z,994.89
2022-12-08T07:06:56.153Z,994.83
2022-12-08T07:07:56.441Z,994.89
2022-12-08T07:08:56.129Z,994.89
2022-12-08T07:09:56.127Z,994.90
2022-12-08T07:10:56.107Z,994.91
2022-12-08T07:11:56.139Z,994.89
2022-12-08T07:12:56.088Z,994.89
2022-12-08T07:13:56.351Z,994.90
2022-12-08T07:14:56.103Z,994.89
2022-12-08T07:15:56.069Z,994.91
2022-12-08T07:16:56.159Z,994.90
2022-12-08T07:17:59.749Z,994.87
2022-12-08T07:18:56.025Z,994.93
2022-12-08T07:19:56.184Z,994.88
2022-12-08T07:20:56.001Z,994.85
2022-12-08T07:21:56.017Z,994.85
2022-12-08T07:22:55.981Z,994.84
2022-12-08T07:23:58.069Z,994.80
2022-12-08T07:24:55.980Z,994.90
2022-12-08T07:25:55.953Z,994.82
2022-12-08T07:26:56.030Z,994.88
2022-12-08T07:27:55.932Z,994.90
2022-12-08T07:28:55.916Z,994.85
2022-12-08T07:29:55.949Z,994.91
2022-12-08T07:30:56.086Z,994.89
2022-12-08T07:31:55.885Z,994.86
2022-12-08T07:32:55.889Z,994.86
2022-12-08T07:33:55.902Z,994.93
2022-12-08T07:34:55.851Z,994.89
2022-12-08T07:35:55.840Z,994.90
2022-12-08T07:36:55.894Z,994.90
2022-12-08T07:37:55.852Z,994.89
2022-12-08T07:38:55.873Z,994.90
2022-12-08T07:39:55.812Z,994.90
2022-12-08T07:40:55.781Z,994.90
2022-12-08T07:41:55.784Z,994.96
2022-12-08T07:42:55.777Z,994.91
2022-12-08T07:43:55.893Z,994.87
2022-12-08T07:44:55.819Z,994.85
2022-12-08T07:45:55.828Z,994.83
2022-12-08T07:46:55.717Z,994.89
2022-12-08T07:47:55.779Z,994.84
2022-12-08T07:48:55.819Z,994.91
2022-12-08T07:49:55.753Z,994.86
2022-12-08T07:50:55.722Z,994.85
2022-12-08T07:51:55.686Z,994.79
2022-12-08T07:52:55.652Z,994.84
2022-12-08T07:53:55.665Z,994.81
2022-12-08T07:54:55.651Z,994.86
2022-12-08T07:55:55.637Z,994.82
2022-12-08T07:56:55.622Z,994.88
2022-12-08T07:57:55.626Z,994.86
2022-12-08T07:58:55.586Z,994.83
2022-12-08T07:59:55.579Z,994.92
2022-12-08T08:00:55.753Z,994.91
2022-12-08T08:02:19.553Z,994.88
2022-12-08T08:02:55.671Z,994.86
2022-12-08T08:03:55.549Z,994.88
2022-12-08T08:04:55.581Z,994.84
2022-12-08T08:05:55.531Z,994.94
2022-12-08T08:06:55.501Z,994.93
2022-12-08T08:07:55.585Z,994.99
2022-12-08T08:08:55.500Z,994.91
2022-12-08T08:09:55.469Z,994.97
2022-12-08T08:10:55.456Z,994.85
2022-12-08T08:12:22.391Z,994.86
2022-12-08T08:12:55.434Z,994.90
2022-12-08T08:13:55.469Z,994.99
2022-12-08T08:14:55.434Z,994.89
2022-12-08T08:15:55.568Z,994.90
2022-12-08T08:16:55.479Z,994.89
2022-12-08T08:17:55.389Z,994.93
2022-12-08T08:18:55.413Z,994.89
2022-12-08T08:19:55.362Z,994.84
2022-12-08T08:20:55.357Z,994.87
2022-12-08T08:21:55.355Z,994.89
2022-12-08T08:22:55.332Z,994.91
2022-12-08T08:23:55.405Z,994.79
2022-12-08T08:24:55.326Z,994.89
2022-12-08T08:25:55.298Z,994.82
2022-12-08T08:26:55.295Z,994.84
2022-12-08T08:27:55.273Z,994.77
2022-12-08T08:28:55.289Z,994.78
2022-12-08T08:29:55.361Z,994.83
2022-12-08T08:30:55.411Z,994.83
2022-12-08T08:31:55.236Z,994.74
2022-12-08T08:32:55.238Z,994.79
2022-12-08T08:33:55.210Z,994.79
2022-12-08T08:34:55.215Z,994.80
2022-12-08T08:35:55.194Z,994.82
2022-12-08T08:36:55.257Z,994.79
2022-12-08T08:37:55.198Z,994.79
2022-12-08T08:38:55.166Z,994.80
2022-12-08T08:39:55.186Z,994.71
2022-12-08T08:40:55.152Z,994.77
2022-12-08T08:41:55.134Z,994.81
2022-12-08T08:42:55.157Z,994.79
2022-12-08T08:43:55.126Z,994.77
2022-12-08T08:44:55.119Z,994.78
2022-12-08T08:45:55.126Z,994.78
2022-12-08T08:46:55.153Z,994.75
2022-12-08T08:47:55.070Z,994.74
2022-12-08T08:48:55.064Z,994.75
2022-12-08T08:49:55.070Z,994.80
2022-12-08T08:50:55.028Z,994.72
2022-12-08T08:51:55.066Z,994.74
2022-12-08T08:52:55.028Z,994.72
2022-12-08T08:53:55.032Z,994.77
2022-12-08T08:54:55.035Z,994.73
2022-12-08T08:55:54.984Z,994.75
2022-12-08T08:56:54.963Z,994.78
2022-12-08T08:57:54.953Z,994.69
2022-12-08T08:58:54.939Z,994.69
2022-12-08T08:59:54.936Z,994.71
2022-12-08T09:00:54.953Z,994.70
2022-12-08T09:01:54.971Z,994.66
2022-12-08T09:02:54.918Z,994.72
2022-12-08T09:03:54.898Z,994.71
2022-12-08T09:04:54.922Z,994.73
2022-12-08T09:05:54.960Z,994.69
2022-12-08T09:06:54.864Z,994.65
2022-12-08T09:07:54.910Z,994.70
2022-12-08T09:08:54.835Z,994.66
2022-12-08T09:10:00.043Z,994.63
2022-12-08T09:10:55.814Z,994.64
2022-12-08T09:11:54.804Z,994.64
2022-12-08T09:12:54.853Z,994.69
2022-12-08T09:13:54.785Z,994.67
2022-12-08T09:14:54.772Z,994.60
2022-12-08T09:15:54.794Z,994.68
2022-12-08T09:16:54.805Z,994.66
2022-12-08T09:17:54.736Z,994.70
2022-12-08T09:18:54.732Z,994.68
2022-12-08T09:19:54.722Z,994.67
2022-12-08T09:20:54.740Z,994.64
2022-12-08T09:21:54.693Z,994.64
2022-12-08T09:22:54.714Z,994.64
2022-12-08T09:23:54.672Z,994.62
2022-12-08T09:24:54.667Z,994.61
2022-12-08T09:25:54.672Z,994.70
2022-12-08T09:26:54.667Z,994.61
2022-12-08T09:27:54.671Z,994.62
2022-12-08T09:28:54.622Z,994.62
2022-12-08T09:29:54.605Z,994.65
2022-12-08T09:30:54.672Z,994.56
2022-12-08T09:31:54.704Z,994.54
2022-12-08T09:32:54.597Z,994.61
2022-12-08T09:33:54.582Z,994.61
2022-12-08T09:34:54.560Z,994.56
2022-12-08T09:35:54.546Z,994.52
2022-12-08T09:36:54.549Z,994.52
2022-12-08T09:37:54.544Z,994.55
2022-12-08T09:38:54.513Z,994.51
2022-12-08T09:39:54.500Z,994.51
2022-12-08T09:40:54.499Z,994.48
2022-12-08T09:41:54.542Z,994.49
2022-12-08T09:42:54.474Z,994.48
2022-12-08T09:43:54.467Z,994.50
2022-12-08T09:44:54.448Z,994.50
2022-12-08T09:45:54.433Z,994.49
2022-12-08T09:46:54.480Z,994.53
2022-12-08T09:47:54.462Z,994.53
2022-12-08T09:48:54.404Z,994.48
2022-12-08T09:49:54.389Z,994.50
2022-12-08T09:50:54.390Z,994.53
2022-12-08T09:51:54.367Z,994.49
2022-12-08T09:52:54.481Z,994.51
2022-12-08T09:53:54.348Z,994.47
2022-12-08T09:54:54.348Z,994.44
2022-12-08T09:55:54.361Z,994.46
2022-12-08T09:56:54.322Z,994.42
2022-12-08T09:57:56.547Z,994.42
2022-12-08T09:58:55.474Z,994.48
2022-12-08T09:59:54.335Z,994.43
2022-12-08T10:00:54.412Z,994.43
2022-12-08T10:01:54.426Z,994.38
2022-12-08T10:02:54.328Z,994.37
2022-12-08T10:03:54.314Z,994.33
2022-12-08T10:04:54.408Z,994.32
2022-12-08T10:05:54.325Z,994.30
2022-12-08T10:06:54.338Z,994.30
2022-12-08T10:07:54.282Z,994.23
2022-12-08T10:08:54.300Z,994.24
2022-12-08T10:09:54.206Z,994.27
2022-12-08T10:10:54.190Z,994.29
2022-12-08T10:11:54.155Z,994.30
2022-12-08T10:12:54.148Z,994.31
2022-12-08T10:13:54.148Z,994.26
2022-12-08T10:14:54.142Z,994.19
2022-12-08T10:15:54.149Z,994.21
2022-12-08T10:16:54.112Z,994.24
2022-12-08T10:17:54.093Z,994.17
2022-12-08T10:18:54.075Z,994.14
2022-12-08T10:19:54.063Z,994.17
2022-12-08T10:20:54.112Z,994.18
2022-12-08T10:21:54.081Z,994.18
2022-12-08T10:22:54.028Z,994.13
2022-12-08T10:23:54.017Z,994.08
2022-12-08T10:24:54.038Z,994.09
2022-12-08T10:25:53.997Z,994.11
2022-12-08T10:26:54.009Z,994.10
2022-12-08T10:27:54.048Z,994.10
2022-12-08T10:28:53.973Z,994.11
2022-12-08T10:29:53.995Z,994.10
2022-12-08T10:30:54.121Z,994.08
2022-12-08T10:31:54.016Z,994.10
2022-12-08T10:32:53.916Z,994.04
2022-12-08T10:33:54.011Z,994.02
2022-12-08T10:34:56.405Z,994.07
2022-12-08T10:35:53.894Z,993.95
2022-12-08T10:36:53.874Z,993.98
2022-12-08T10:37:53.862Z,993.94
2022-12-08T10:38:53.856Z,993.94
2022-12-08T10:39:53.892Z,994.02
2022-12-08T10:40:53.833Z,993.92
2022-12-08T10:41:53.840Z,993.98
2022-12-08T10:42:53.820Z,993.83
2022-12-08T10:43:53.793Z,993.83
2022-12-08T10:44:53.815Z,993.81
2022-12-08T10:45:53.890Z,993.84
2022-12-08T10:46:53.857Z,993.84
2022-12-08T10:47:55.488Z,993.78
2022-12-08T10:48:53.769Z,993.85
2022-12-08T10:49:53.732Z,993.77
2022-12-08T10:50:53.747Z,993.80
2022-12-08T10:51:53.724Z,993.81
2022-12-08T10:52:53.708Z,993.77
2022-12-08T10:53:53.683Z,993.76
2022-12-08T10:54:53.675Z,993.78
2022-12-08T10:55:53.666Z,993.70
2022-12-08T10:56:53.727Z,993.79
2022-12-08T10:57:53.644Z,993.80
2022-12-08T10:58:53.639Z,993.74
2022-12-08T10:59:53.623Z,993.70
2022-12-08T11:00:53.764Z,993.72
2022-12-08T11:01:53.809Z,993.79
2022-12-08T11:02:53.652Z,993.72
2022-12-08T11:03:53.579Z,993.79
2022-12-08T11:04:53.599Z,993.73
2022-12-08T11:05:53.552Z,993.76
2022-12-08T11:06:53.590Z,993.76
2022-12-08T11:07:53.597Z,993.70
2022-12-08T11:08:53.561Z,993.71
2022-12-08T11:09:53.511Z,993.67
2022-12-08T11:10:53.509Z,993.73
2022-12-08T11:11:53.521Z,993.72
2022-12-08T11:12:53.475Z,993.64
2022-12-08T11:13:53.471Z,993.60
2022-12-08T11:14:53.468Z,993.65
2022-12-08T11:15:53.549Z,993.63
2022-12-08T11:16:53.599Z,993.58
2022-12-08T11:17:57.639Z,993.59
2022-12-08T11:18:53.412Z,993.54
2022-12-08T11:19:53.408Z,993.54
2022-12-08T11:20:53.407Z,993.49
2022-12-08T11:21:53.436Z,993.52
2022-12-08T11:22:53.430Z,993.56
2022-12-08T11:23:53.355Z,993.55
2022-12-08T11:24:53.342Z,993.53
2022-12-08T11:25:53.343Z,993.53
2022-12-08T11:26:53.331Z,993.52
2022-12-08T11:27:53.378Z,993.51
2022-12-08T11:28:53.325Z,993.46
2022-12-08T11:29:53.287Z,993.45
2022-12-08T11:30:53.335Z,993.44
2022-12-08T11:31:53.492Z,993.42
2022-12-08T11:32:53.257Z,993.43
2022-12-08T11:33:53.293Z,993.42
2022-12-08T11:34:53.233Z,993.44
2022-12-08T11:35:53.226Z,993.44
2022-12-08T11:36:53.225Z,993.39
2022-12-08T11:37:59.396Z,993.41
2022-12-08T11:38:53.212Z,993.44
2022-12-08T11:39:53.187Z,993.47
2022-12-08T11:40:53.173Z,993.37
2022-12-08T11:41:53.224Z,993.44
2022-12-08T11:42:53.193Z,993.43
2022-12-08T11:43:53.142Z,993.34
2022-12-08T11:44:53.127Z,993.37
2022-12-08T11:45:53.213Z,993.37
2022-12-08T11:46:53.099Z,993.38
2022-12-08T11:47:55.903Z,993.37
2022-12-08T11:48:53.097Z,993.44
2022-12-08T11:49:53.093Z,993.38
2022-12-08T11:50:53.065Z,993.35
2022-12-08T11:51:53.044Z,993.47
2022-12-08T11:52:53.033Z,993.39
2022-12-08T11:53:53.043Z,993.43
2022-12-08T11:54:53.036Z,993.43
2022-12-08T11:55:53.031Z,993.39
2022-12-08T11:56:52.989Z,993.42
2022-12-08T11:57:53.064Z,993.47
2022-12-08T11:58:52.988Z,993.44
2022-12-08T11:59:52.957Z,993.44
2022-12-08T12:00:52.982Z,993.44
2022-12-08T12:01:53.016Z,993.38
2022-12-08T12:02:52.980Z,993.37
2022-12-08T12:03:52.912Z,993.36
2022-12-08T12:04:52.917Z,993.44
2022-12-08T12:06:55.420Z,993.43
2022-12-08T12:07:52.959Z,993.40
2022-12-08T12:08:52.865Z,993.39
2022-12-08T12:09:52.846Z,993.43
2022-12-08T12:10:52.834Z,993.42
2022-12-08T12:11:52.839Z,993.41
2022-12-08T12:12:52.846Z,993.42
2022-12-08T12:13:52.860Z,993.38
2022-12-08T12:14:52.843Z,993.41
2022-12-08T12:15:52.776Z,993.37
2022-12-08T12:16:52.858Z,993.37
2022-12-08T12:17:52.769Z,993.35
2022-12-08T12:18:52.774Z,993.39
2022-12-08T12:19:52.771Z,993.38
2022-12-08T12:20:52.739Z,993.36
2022-12-08T12:21:52.737Z,993.36
2022-12-08T12:22:52.724Z,993.35
2022-12-08T12:23:52.723Z,993.32
2022-12-08T12:24:52.690Z,993.35
2022-12-08T12:25:52.685Z,993.32
2022-12-08T12:26:52.698Z,993.31
2022-12-08T12:27:57.093Z,993.31
2022-12-08T12:28:52.634Z,993.28
2022-12-08T12:29:55.877Z,993.23